Time;durP1;ratioP1;P1;durP2;ratioP2;P2;SDS_P1;SDS_P2;PMS_P1;PMS_P2;Temp;Humidity;BMP_temperature;BMP_pressure;BME280_temperature;BME280_humidity;BME280_pressure;Samples;Min_cycle;Max_cycle;Signal;HPM_P1;HPM_P2
2021/08/27 00:01:03;;;;;;;7.32;5.68;;;23.80;99.90;;;;;;5022274;28;20062;-63
2021/08/27 00:03:29;;;;;;;4.47;3.65;;;23.80;99.90;;;;;;5017645;28;20022;-63
2021/08/27 00:05:54;;;;;;;14.13;11.35;;;23.70;99.90;;;;;;5027219;28;20025;-63
2021/08/27 00:08:20;;;;;;;4.32;3.65;;;23.80;99.90;;;;;;5031749;28;20475;-63
2021/08/27 00:10:45;;;;;;;7.03;5.93;;;23.70;99.90;;;;;;5019930;28;20052;-63
2021/08/27 00:13:11;;;;;;;19.63;12.30;;;23.70;99.90;;;;;;5031480;28;20091;-63
2021/08/27 00:15:37;;;;;;;7.78;6.05;;;23.70;99.90;;;;;;5031489;28;20025;-63
2021/08/27 00:18:03;;;;;;;9.70;7.90;;;23.70;99.90;;;;;;5031252;28;20041;-63
2021/08/27 00:20:29;;;;;;;5.93;4.28;;;23.80;99.90;;;;;;5017802;28;20033;-63
2021/08/27 00:22:54;;;;;;;8.10;6.82;;;23.70;99.90;;;;;;5036009;28;20033;-63
2021/08/27 00:25:20;;;;;;;10.13;7.45;;;23.80;99.90;;;;;;5035255;28;20115;-63
2021/08/27 00:27:46;;;;;;;6.80;5.78;;;23.80;99.90;;;;;;5016153;28;20026;-63
2021/08/27 00:30:12;;;;;;;11.65;7.82;;;23.60;99.90;;;;;;5016339;28;20421;-63
2021/08/27 00:32:38;;;;;;;6.63;5.70;;;23.60;99.90;;;;;;5033336;28;20041;-63
2021/08/27 00:35:05;;;;;;;7.50;6.70;;;23.70;99.90;;;;;;5036108;28;20022;-63
2021/08/27 00:37:31;;;;;;;7.38;5.60;;;23.60;99.90;;;;;;5034627;28;20401;-63
2021/08/27 00:39:57;;;;;;;10.85;5.32;;;23.60;99.90;;;;;;5034866;28;20045;-63
2021/08/27 00:42:23;;;;;;;6.10;4.28;;;23.60;99.90;;;;;;5034617;28;20029;-63
2021/08/27 00:44:49;;;;;;;4.20;3.80;;;23.50;99.90;;;;;;5034451;28;20029;-63
2021/08/27 00:47:15;;;;;;;5.20;3.95;;;23.40;99.90;;;;;;5031110;28;20030;-63
2021/08/27 00:49:40;;;;;;;10.30;8.02;;;23.40;99.90;;;;;;5035443;28;20032;-63
2021/08/27 00:52:08;;;;;;;6.63;5.25;;;23.50;99.90;;;;;;5019926;28;20124;-63
2021/08/27 00:54:33;;;;;;;18.35;15.48;;;23.50;99.90;;;;;;5015551;28;20388;-63
2021/08/27 00:56:59;;;;;;;7.93;5.45;;;23.50;99.90;;;;;;5022643;28;20041;-63
2021/08/27 00:59:25;;;;;;;8.68;6.60;;;23.40;99.90;;;;;;5035428;28;20064;-63
2021/08/27 01:01:51;;;;;;;6.28;5.78;;;23.40;99.90;;;;;;5032143;28;20033;-63
2021/08/27 01:04:17;;;;;;;12.27;7.53;;;23.40;99.90;;;;;;5034583;28;20511;-63
2021/08/27 01:06:58;;;;;;;7.30;5.97;;;23.40;99.90;;;;;;5034042;28;20029;-63
2021/08/27 01:09:51;;;;;;;8.25;5.25;;;23.50;99.90;;;;;;5043163;28;20440;-63
2021/08/27 01:12:54;;;;;;;6.50;5.85;;;23.40;99.90;;;;;;5029474;28;20034;-63
2021/08/27 01:16:08;;;;;;;8.55;7.07;;;23.40;99.90;;;;;;5034137;28;20025;-63
2021/08/27 01:18:41;;;;;;;11.52;8.38;;;23.40;99.90;;;;;;5027776;28;20045;-63
2021/08/27 01:21:44;;;;;;;5.82;5.32;;;23.40;99.90;;;;;;5049076;28;20095;-63
2021/08/27 01:24:11;;;;;;;6.10;4.68;;;23.40;99.90;;;;;;5029369;28;20465;-63
2021/08/27 01:26:43;;;;;;;7.15;5.07;;;23.40;99.90;;;;;;5022811;28;20104;-63
2021/08/27 01:29:10;;;;;;;9.50;6.50;;;23.40;99.90;;;;;;5017987;28;20034;-63
2021/08/27 01:31:40;;;;;;;5.05;4.22;;;23.40;99.90;;;;;;5025750;28;20045;-63
2021/08/27 01:34:21;;;;;;;13.68;10.30;;;23.40;99.90;;;;;;5035809;28;20038;-63
2021/08/27 01:36:48;;;;;;;4.70;4.30;;;23.30;99.90;;;;;;5033640;28;20502;-63
2021/08/27 01:39:16;;;;;;;5.95;3.80;;;23.30;99.90;;;;;;5034420;28;20036;-63
2021/08/27 01:41:48;;;;;;;4.03;3.60;;;23.30;99.90;;;;;;5025480;28;20092;-63
2021/08/27 01:44:14;;;;;;;4.75;4.20;;;23.30;99.90;;;;;;5015345;28;20024;-63
2021/08/27 01:46:42;;;;;;;6.55;3.70;;;23.30;99.90;;;;;;5022438;28;20037;-63
2021/08/27 01:49:10;;;;;;;4.38;3.42;;;23.30;99.90;;;;;;5019663;28;20032;-63
2021/08/27 01:51:37;;;;;;;4.47;3.58;;;23.30;99.90;;;;;;5021777;28;20140;-63
2021/08/27 01:54:04;;;;;;;4.05;3.67;;;23.30;99.90;;;;;;5034421;28;20021;-63
2021/08/27 01:56:31;;;;;;;7.38;3.50;;;23.30;99.90;;;;;;5033452;28;20132;-63
2021/08/27 01:58:58;;;;;;;4.40;4.00;;;23.20;99.90;;;;;;5023024;28;20026;-63
2021/08/27 02:01:25;;;;;;;6.28;4.20;;;23.20;99.90;;;;;;5019402;28;20036;-63
2021/08/27 02:03:53;;;;;;;4.45;3.58;;;23.30;99.90;;;;;;5034444;28;20121;-63
2021/08/27 02:06:20;;;;;;;9.60;3.83;;;23.20;99.90;;;;;;5032753;28;20472;-63
2021/08/27 02:08:46;;;;;;;5.30;3.83;;;23.30;99.90;;;;;;5030571;28;20041;-63
2021/08/27 02:11:12;;;;;;;4.20;3.80;;;23.20;99.90;;;;;;5017901;28;20399;-63
2021/08/27 02:13:39;;;;;;;5.78;3.80;;;23.20;99.90;;;;;;5033937;28;20036;-63
2021/08/27 02:16:06;;;;;;;5.53;3.88;;;23.20;99.90;;;;;;5031496;28;20041;-63
2021/08/27 02:18:32;;;;;;;4.55;3.90;;;23.20;99.90;;;;;;5033997;28;20096;-63
2021/08/27 02:21:00;;;;;;;6.20;3.92;;;23.20;99.90;;;;;;5016921;28;20034;-63
2021/08/27 02:23:27;;;;;;;4.13;3.60;;;23.20;99.90;;;;;;5032558;28;20119;-63
2021/08/27 02:25:55;;;;;;;4.72;4.25;;;23.20;99.90;;;;;;5032611;28;20029;-63
2021/08/27 02:28:22;;;;;;;4.10;3.80;;;23.10;99.90;;;;;;5014043;28;20033;-63
2021/08/27 02:30:47;;;;;;;6.18;4.18;;;23.10;99.90;;;;;;5013509;28;20050;-63
2021/08/27 02:33:14;;;;;;;4.38;3.97;;;23.10;99.90;;;;;;5032870;28;20112;-63
2021/08/27 02:35:41;;;;;;;3.80;3.50;;;23.10;99.90;;;;;;5033769;28;20032;-63
2021/08/27 02:38:14;;;;;;;5.53;4.07;;;23.10;99.90;;;;;;5015379;28;20037;-63
2021/08/27 02:40:39;;;;;;;4.22;3.83;;;23.10;99.90;;;;;;5013212;28;20088;-63
2021/08/27 02:43:05;;;;;;;4.68;3.95;;;23.10;99.90;;;;;;5030936;28;20447;-63
2021/08/27 02:45:30;;;;;;;3.80;3.50;;;23.10;99.90;;;;;;5033924;28;20026;-63
2021/08/27 02:47:56;;;;;;;4.10;3.70;;;23.10;99.90;;;;;;5031509;28;20033;-63
2021/08/27 02:50:22;;;;;;;4.65;4.25;;;23.10;99.90;;;;;;5032227;28;20025;-63
2021/08/27 02:52:51;;;;;;;3.83;3.47;;;23.10;99.90;;;;;;5032413;28;20045;-63
2021/08/27 02:55:24;;;;;;;5.35;4.18;;;23.10;99.90;;;;;;5032304;28;20395;-63
2021/08/27 02:57:57;;;;;;;5.82;3.92;;;23.00;99.90;;;;;;5044027;28;20510;-63
2021/08/27 03:00:24;;;;;;;4.13;3.72;;;23.00;99.90;;;;;;5033570;28;20026;-64
2021/08/27 03:02:50;;;;;;;3.92;3.60;;;23.00;99.90;;;;;;5031161;28;20099;-62
2021/08/27 03:05:22;;;;;;;5.15;3.72;;;22.90;99.90;;;;;;5032285;28;20029;-63
2021/08/27 03:07:59;;;;;;;4.65;4.25;;;22.90;99.90;;;;;;5023049;28;20026;-64
2021/08/27 03:10:32;;;;;;;4.05;3.70;;;23.00;99.90;;;;;;5028290;28;20033;-63
2021/08/27 03:13:11;;;;;;;4.00;3.43;;;23.10;99.90;;;;;;5046339;28;20114;-64
2021/08/27 03:15:46;;;;;;;8.77;4.50;;;23.00;99.90;;;;;;5030712;28;20276;-64
2021/08/27 03:18:42;;;;;;;6.07;5.45;;;23.00;99.90;;;;;;5023315;28;20025;-64
2021/08/27 03:21:16;;;;;;;6.07;4.60;;;23.00;99.90;;;;;;5023626;28;20056;-63
2021/08/27 03:23:44;;;;;;;6.55;4.65;;;23.00;99.90;;;;;;5013085;28;20041;-63
2021/08/27 03:26:15;;;;;;;6.13;5.53;;;23.00;99.90;;;;;;5016025;28;20032;-64
2021/08/27 03:28:48;;;;;;;6.43;5.13;;;23.00;99.90;;;;;;5026784;28;20036;-63
2021/08/27 03:31:15;;;;;;;7.13;5.40;;;22.90;99.90;;;;;;5031567;28;20057;-63
2021/08/27 03:33:40;;;;;;;6.40;5.70;;;22.90;99.90;;;;;;5032792;28;20467;-63
2021/08/27 03:36:07;;;;;;;6.45;5.38;;;22.90;99.90;;;;;;5025859;28;20021;-63
2021/08/27 03:38:34;;;;;;;7.15;6.40;;;22.90;99.90;;;;;;5031798;28;20042;-63
2021/08/27 03:41:00;;;;;;;7.55;6.07;;;22.90;99.90;;;;;;5032636;28;20542;-63
2021/08/27 03:43:27;;;;;;;8.93;5.90;;;22.90;99.90;;;;;;5031414;28;20025;-63
2021/08/27 03:45:54;;;;;;;7.70;7.00;;;22.80;99.90;;;;;;5027994;28;20026;-63
2021/08/27 03:48:20;;;;;;;8.18;7.35;;;22.60;99.90;;;;;;5037929;28;20043;-63
2021/08/27 03:50:51;;;;;;;9.80;6.65;;;22.70;99.90;;;;;;5035683;28;20434;-63
2021/08/27 03:53:18;;;;;;;7.50;6.40;;;22.70;99.90;;;;;;5033450;28;20579;-63
2021/08/27 03:55:51;;;;;;;9.85;7.10;;;22.70;99.90;;;;;;5033019;28;20022;-63
2021/08/27 03:58:20;;;;;;;7.72;6.90;;;22.70;99.90;;;;;;5031746;28;20070;-63
2021/08/27 04:00:48;;;;;;;8.70;7.80;;;22.70;99.90;;;;;;5037064;28;20116;-63
2021/08/27 04:03:13;;;;;;;9.70;8.77;;;22.70;99.90;;;;;;5035106;28;20092;-63
2021/08/27 04:06:01;;;;;;;10.60;9.50;;;22.60;99.90;;;;;;5036450;28;20029;-63
2021/08/27 04:08:27;;;;;;;10.82;9.27;;;22.60;99.90;;;;;;5034971;28;20151;-63
2021/08/27 04:10:52;;;;;;;11.55;10.45;;;22.60;99.90;;;;;;5036259;28;20104;-63
2021/08/27 04:13:18;;;;;;;12.05;10.50;;;22.50;99.90;;;;;;5035330;28;20553;-63
2021/08/27 04:15:43;;;;;;;11.90;9.27;;;22.50;99.90;;;;;;5035030;28;20033;-63
2021/08/27 04:18:09;;;;;;;13.93;10.13;;;22.60;99.90;;;;;;5035143;28;20541;-63
2021/08/27 04:20:34;;;;;;;14.48;11.43;;;22.60;99.90;;;;;;5036181;28;20071;-63
2021/08/27 04:23:00;;;;;;;12.95;11.07;;;22.50;99.90;;;;;;5050173;28;20029;-63
2021/08/27 04:25:26;;;;;;;12.00;10.82;;;22.50;99.90;;;;;;5022043;28;20476;-63
2021/08/27 04:27:51;;;;;;;13.15;10.77;;;22.50;99.90;;;;;;5027855;28;20034;-63
2021/08/27 04:30:17;;;;;;;13.20;10.95;;;22.50;99.90;;;;;;5035805;28;20030;-63
2021/08/27 04:32:42;;;;;;;13.10;11.73;;;22.50;99.90;;;;;;5028088;28;20120;-63
2021/08/27 04:35:08;;;;;;;13.25;11.82;;;22.50;99.90;;;;;;5020201;28;20026;-63
2021/08/27 04:37:34;;;;;;;14.00;12.18;;;22.40;99.90;;;;;;5024801;28;20128;-63
2021/08/27 04:40:00;;;;;;;13.57;12.27;;;22.30;99.90;;;;;;5035972;28;20026;-63
2021/08/27 04:42:25;;;;;;;13.20;11.98;;;22.30;99.90;;;;;;5031075;28;20079;-63
2021/08/27 04:44:51;;;;;;;14.60;13.10;;;22.30;99.90;;;;;;5035743;28;20460;-63
2021/08/27 04:47:16;;;;;;;14.20;12.77;;;22.20;99.90;;;;;;5034425;28;20022;-63
2021/08/27 04:49:42;;;;;;;16.33;12.10;;;22.10;99.90;;;;;;5025591;28;20425;-63
2021/08/27 04:52:08;;;;;;;13.68;12.27;;;22.20;99.90;;;;;;5014402;28;20038;-63
2021/08/27 04:54:34;;;;;;;12.75;11.45;;;22.30;99.90;;;;;;5016094;28;20061;-63
2021/08/27 04:56:59;;;;;;;14.70;11.25;;;22.30;99.90;;;;;;5018744;28;20348;-63
2021/08/27 04:59:25;;;;;;;13.18;11.95;;;22.20;99.90;;;;;;5027790;28;20014;-63
2021/08/27 05:01:50;;;;;;;13.48;11.73;;;22.10;99.90;;;;;;5017342;28;20755;-63
2021/08/27 05:04:16;;;;;;;17.25;11.52;;;22.20;99.90;;;;;;5030791;28;20022;-63
2021/08/27 05:06:41;;;;;;;12.82;10.80;;;22.30;99.90;;;;;;5034069;28;20025;-62
2021/08/27 05:09:07;;;;;;;12.57;11.05;;;22.40;99.90;;;;;;5030818;28;20045;-63
2021/08/27 05:11:33;;;;;;;11.48;10.02;;;22.20;99.90;;;;;;5015134;28;20044;-63
2021/08/27 05:13:58;;;;;;;13.38;10.68;;;22.20;99.90;;;;;;5032315;28;20044;-63
2021/08/27 05:16:24;;;;;;;11.23;10.13;;;22.30;99.90;;;;;;5035370;28;20447;-63
2021/08/27 05:18:50;;;;;;;14.90;9.90;;;22.20;99.90;;;;;;5031599;28;20485;-64
2021/08/27 05:21:16;;;;;;;11.15;9.20;;;22.20;99.90;;;;;;5024213;28;20041;-64
2021/08/27 05:23:42;;;;;;;15.85;10.35;;;22.30;99.90;;;;;;5033996;28;20493;-64
2021/08/27 05:26:08;;;;;;;13.55;10.43;;;22.40;99.90;;;;;;5034767;28;20025;-64
2021/08/27 05:28:33;;;;;;;10.57;9.55;;;22.40;99.90;;;;;;5032852;28;20479;-63
2021/08/27 05:30:59;;;;;;;10.40;9.30;;;22.40;99.90;;;;;;5016634;28;20050;-62
2021/08/27 05:33:25;;;;;;;11.18;9.30;;;22.50;99.90;;;;;;5028524;28;20029;-62
2021/08/27 05:35:50;;;;;;;11.18;9.38;;;22.50;99.90;;;;;;5034719;28;20030;-62
2021/08/27 05:38:16;;;;;;;9.98;8.85;;;22.60;99.90;;;;;;5033470;28;20033;-62
2021/08/27 05:40:41;;;;;;;9.65;7.72;;;22.30;99.90;;;;;;5033603;28;20025;-62
2021/08/27 05:43:07;;;;;;;7.57;6.72;;;22.30;99.90;;;;;;5033139;28;20091;-62
2021/08/27 05:45:33;;;;;;;8.50;7.03;;;22.20;99.90;;;;;;5034051;28;20033;-61
2021/08/27 05:47:58;;;;;;;10.13;6.70;;;22.20;99.90;;;;;;5020668;28;20034;-63
2021/08/27 05:50:24;;;;;;;10.95;6.60;;;22.20;99.90;;;;;;5014660;28;20061;-63
2021/08/27 05:52:50;;;;;;;8.77;6.25;;;22.30;99.90;;;;;;5022699;28;20037;-63
2021/08/27 05:55:15;;;;;;;12.57;6.32;;;22.30;99.90;;;;;;5031657;28;20227;-63
2021/08/27 05:57:41;;;;;;;8.55;5.43;;;22.40;99.90;;;;;;5030604;28;20483;-63
2021/08/27 06:00:08;;;;;;;13.50;6.05;;;22.40;99.90;;;;;;5031236;28;20029;-63
2021/08/27 06:02:33;;;;;;;7.00;5.20;;;22.20;99.90;;;;;;5030633;28;20427;-63
2021/08/27 06:04:59;;;;;;;8.48;4.85;;;22.20;99.90;;;;;;5031299;28;20041;-63
2021/08/27 06:07:28;;;;;;;7.43;5.40;;;22.20;99.90;;;;;;5030768;28;20017;-63
2021/08/27 06:09:54;;;;;;;7.35;4.90;;;22.10;99.90;;;;;;5031733;28;20468;-63
2021/08/27 06:12:20;;;;;;;8.05;5.13;;;22.20;99.90;;;;;;5030876;28;20041;-63
2021/08/27 06:14:45;;;;;;;9.25;5.45;;;22.20;99.90;;;;;;5027977;28;20072;-62
2021/08/27 06:17:11;;;;;;;10.88;5.65;;;22.20;99.90;;;;;;5016016;28;20392;-62
2021/08/27 06:19:37;;;;;;;8.48;5.20;;;22.10;99.90;;;;;;5029235;28;20025;-63
2021/08/27 06:22:02;;;;;;;8.50;5.18;;;22.30;99.90;;;;;;5032570;28;20025;-62
2021/08/27 06:24:28;;;;;;;10.30;5.85;;;22.20;99.90;;;;;;5031524;28;20036;-63
2021/08/27 06:26:55;;;;;;;8.13;5.22;;;22.20;99.90;;;;;;5030930;28;20036;-63
2021/08/27 06:29:21;;;;;;;8.98;5.20;;;22.40;99.90;;;;;;5033161;28;20087;-63
2021/08/27 06:31:47;;;;;;;8.27;5.45;;;22.60;99.90;;;;;;5032612;28;20111;-63
2021/08/27 06:34:13;;;;;;;9.27;5.88;;;22.60;99.90;;;;;;5032561;28;20472;-63
2021/08/27 06:36:38;;;;;;;12.82;5.38;;;22.40;99.90;;;;;;5023977;28;20025;-63
2021/08/27 06:39:04;;;;;;;7.68;4.97;;;22.50;99.90;;;;;;5032672;28;20030;-63
2021/08/27 06:41:29;;;;;;;10.02;4.72;;;22.50;99.90;;;;;;5024970;28;20071;-63
2021/08/27 06:43:55;;;;;;;9.07;4.72;;;22.50;99.90;;;;;;5019744;28;20093;-63
2021/08/27 06:46:23;;;;;;;8.48;5.40;;;22.40;99.90;;;;;;5022421;28;20032;-63
2021/08/27 06:48:50;;;;;;;8.13;4.25;;;22.30;99.90;;;;;;5028599;28;20041;-63
2021/08/27 06:51:16;;;;;;;10.00;4.20;;;22.40;99.90;;;;;;5030587;28;20033;-63
2021/08/27 06:53:42;;;;;;;5.93;3.97;;;22.30;99.90;;;;;;5030574;28;20068;-66
2021/08/27 06:56:08;;;;;;;7.70;4.63;;;22.20;99.90;;;;;;5032030;28;20424;-63
2021/08/27 06:58:34;;;;;;;8.57;4.35;;;22.40;99.90;;;;;;5026841;28;20061;-63
2021/08/27 07:01:00;;;;;;;8.77;4.30;;;22.50;99.90;;;;;;5013451;28;20472;-64
2021/08/27 07:03:26;;;;;;;8.18;4.28;;;22.70;99.90;;;;;;5024057;28;20529;-64
2021/08/27 07:05:52;;;;;;;8.90;3.75;;;22.50;99.90;;;;;;5031939;28;20035;-64
2021/08/27 07:08:19;;;;;;;10.75;4.15;;;22.30;99.90;;;;;;5029883;28;20032;-64
2021/08/27 07:10:44;;;;;;;8.75;4.00;;;22.30;99.90;;;;;;5011941;28;20071;-64
2021/08/27 07:13:10;;;;;;;6.63;4.40;;;22.40;99.90;;;;;;5022373;28;20033;-64
2021/08/27 07:15:36;;;;;;;6.10;3.53;;;22.40;99.90;;;;;;5031835;28;20026;-64
2021/08/27 07:18:02;;;;;;;6.18;3.90;;;22.50;99.90;;;;;;5031388;28;20025;-64
2021/08/27 07:20:28;;;;;;;6.93;3.70;;;22.40;99.90;;;;;;5032068;28;20041;-64
2021/08/27 07:22:55;;;;;;;7.25;4.43;;;22.60;99.90;;;;;;5028415;28;20364;-64
2021/08/27 07:25:21;;;;;;;7.53;4.57;;;22.50;99.90;;;;;;5032967;28;20113;-64
2021/08/27 07:27:48;;;;;;;4.90;3.83;;;22.70;99.90;;;;;;5029228;28;20104;-64
2021/08/27 07:30:15;;;;;;;6.72;3.85;;;22.80;99.90;;;;;;5031858;28;20025;-63
2021/08/27 07:32:40;;;;;;;8.10;4.15;;;22.80;99.90;;;;;;5031772;28;20457;-64
2021/08/27 07:35:07;;;;;;;7.00;3.47;;;22.80;99.90;;;;;;5032525;28;20026;-64
2021/08/27 07:37:32;;;;;;;6.10;3.97;;;22.70;99.90;;;;;;5031922;28;20061;-64
2021/08/27 07:39:58;;;;;;;10.00;4.32;;;22.60;99.90;;;;;;5021078;28;20033;-65
2021/08/27 07:42:24;;;;;;;7.13;3.85;;;22.30;99.90;;;;;;5012202;28;20029;-64
2021/08/27 07:44:50;;;;;;;8.18;4.45;;;22.50;99.90;;;;;;5032816;28;20387;-63
2021/08/27 07:47:16;;;;;;;6.63;3.92;;;22.40;99.90;;;;;;5032705;28;20052;-64
2021/08/27 07:49:41;;;;;;;8.10;4.40;;;22.50;99.90;;;;;;5019788;28;20037;-64
2021/08/27 07:52:07;;;;;;;11.23;4.22;;;22.70;99.90;;;;;;5017437;28;20037;-64
2021/08/27 07:54:33;;;;;;;9.75;4.07;;;22.70;99.90;;;;;;5028263;28;20025;-64
2021/08/27 07:56:59;;;;;;;12.93;4.38;;;22.70;99.90;;;;;;5031096;28;20033;-64
2021/08/27 07:59:25;;;;;;;9.63;3.70;;;22.60;99.90;;;;;;5025273;28;20159;-64
2021/08/27 08:01:50;;;;;;;9.57;4.10;;;22.60;99.90;;;;;;5051129;28;20025;-64
2021/08/27 08:04:16;;;;;;;6.93;3.80;;;22.70;99.90;;;;;;5034981;28;20040;-63
2021/08/27 08:06:42;;;;;;;6.72;3.80;;;22.70;99.90;;;;;;5031557;28;20033;-63
2021/08/27 08:09:08;;;;;;;7.00;3.42;;;22.80;99.90;;;;;;5030992;28;20033;-63
2021/08/27 08:11:34;;;;;;;10.10;4.15;;;22.90;99.90;;;;;;5032323;28;20064;-64
2021/08/27 08:14:00;;;;;;;8.93;3.95;;;22.90;99.90;;;;;;5031238;28;20598;-63
2021/08/27 08:16:26;;;;;;;14.65;4.55;;;23.00;99.90;;;;;;5032422;28;20104;-63
2021/08/27 08:18:52;;;;;;;9.07;5.00;;;22.90;99.90;;;;;;5031083;28;20030;-63
2021/08/27 08:21:20;;;;;;;12.68;4.55;;;22.70;99.90;;;;;;5032685;28;20021;-63
2021/08/27 08:23:46;;;;;;;12.70;4.47;;;22.90;99.90;;;;;;5028215;28;20033;-64
2021/08/27 08:26:12;;;;;;;12.35;4.10;;;23.00;99.90;;;;;;5012488;28;20022;-63
2021/08/27 08:28:37;;;;;;;10.48;3.97;;;22.90;99.90;;;;;;5026823;28;20029;-63
2021/08/27 08:31:03;;;;;;;9.68;4.18;;;22.80;99.90;;;;;;5031915;28;20098;-63
2021/08/27 08:33:28;;;;;;;7.15;3.83;;;22.90;99.90;;;;;;5022385;28;20034;-63
2021/08/27 08:35:54;;;;;;;6.88;3.83;;;23.00;99.90;;;;;;5016346;28;20517;-63
2021/08/27 08:38:22;;;;;;;7.45;4.20;;;23.10;99.90;;;;;;5021780;28;20025;-64
2021/08/27 08:40:47;;;;;;;9.18;3.88;;;23.00;99.90;;;;;;5031969;28;20022;-63
2021/08/27 08:43:16;;;;;;;9.45;4.53;;;22.80;99.90;;;;;;5028504;28;20041;-63
2021/08/27 08:45:48;;;;;;;10.65;4.22;;;22.60;99.90;;;;;;5021836;28;20148;-63
2021/08/27 08:48:17;;;;;;;7.85;4.07;;;22.90;99.90;;;;;;5023181;28;20037;-63
2021/08/27 08:50:44;;;;;;;9.30;3.88;;;23.00;99.90;;;;;;5031198;28;20034;-63
2021/08/27 08:53:11;;;;;;;6.10;3.10;;;23.00;99.90;;;;;;5027742;28;20424;-63
2021/08/27 08:55:38;;;;;;;7.57;4.35;;;22.90;99.90;;;;;;5016654;28;20033;-64
2021/08/27 08:58:04;;;;;;;11.35;4.00;;;23.10;99.90;;;;;;5021030;28;20047;-63
2021/08/27 09:00:30;;;;;;;9.07;3.53;;;23.00;99.90;;;;;;5034306;28;20444;-63
2021/08/27 09:02:55;;;;;;;14.85;4.95;;;22.90;99.90;;;;;;5031677;28;20036;-63
2021/08/27 09:05:21;;;;;;;9.77;4.15;;;22.90;99.90;;;;;;5018529;28;20445;-64
2021/08/27 09:07:46;;;;;;;8.23;3.30;;;22.90;99.90;;;;;;5022688;28;20109;-63
2021/08/27 09:10:20;;;;;;;16.20;3.83;;;23.00;99.90;;;;;;5033327;28;20026;-64
2021/08/27 09:12:45;;;;;;;8.57;3.83;;;23.10;99.90;;;;;;5027940;28;20545;-64
2021/08/27 09:15:13;;;;;;;4.80;2.88;;;23.10;99.90;;;;;;5021966;28;20026;-63
2021/08/27 09:17:47;;;;;;;7.03;3.00;;;23.10;99.90;;;;;;5018265;28;20094;-64
2021/08/27 09:20:14;;;;;;;;;;;23.30;99.90;;;;;;5021684;28;20033;-64
2021/08/27 09:22:57;;;;;;;8.68;2.97;;;23.30;99.90;;;;;;5034881;28;20034;-63
2021/08/27 09:25:31;;;;;;;6.50;2.55;;;23.20;99.90;;;;;;5015115;28;20022;-63
2021/08/27 09:28:16;;;;;;;7.10;2.80;;;23.20;99.90;;;;;;5033425;28;20025;-63
2021/08/27 09:30:54;;;;;;;7.20;3.45;;;23.10;99.90;;;;;;5034500;28;20049;-62
2021/08/27 09:33:29;;;;;;;6.43;2.67;;;23.20;99.90;;;;;;5032340;28;20037;-63
2021/08/27 09:35:57;;;;;;;7.53;3.25;;;23.20;99.90;;;;;;5024969;28;20030;-64
2021/08/27 09:38:26;;;;;;;9.98;2.70;;;23.20;99.90;;;;;;5020406;28;20056;-63
2021/08/27 09:41:07;;;;;;;10.73;3.60;;;23.30;99.90;;;;;;5020192;28;20087;-63
2021/08/27 09:43:51;;;;;;;8.38;3.10;;;23.30;99.90;;;;;;5029025;28;20029;-63
2021/08/27 09:46:37;;;;;;;10.77;3.35;;;23.70;99.90;;;;;;5025983;28;20026;-63
2021/08/27 09:49:23;;;;;;;7.07;2.45;;;23.80;99.90;;;;;;5022999;28;20029;-63
2021/08/27 09:51:49;;;;;;;9.07;2.80;;;23.60;99.90;;;;;;5028484;28;20034;-63
2021/08/27 09:54:34;;;;;;;5.85;2.10;;;23.50;99.90;;;;;;5030653;28;20387;-63
2021/08/27 09:57:04;;;;;;;8.23;3.30;;;23.70;99.90;;;;;;5019398;28;20036;-63
2021/08/27 09:59:43;;;;;;;8.82;2.30;;;23.70;99.90;;;;;;5021860;28;20112;-63
2021/08/27 10:02:11;;;;;;;3.78;1.77;;;23.30;99.90;;;;;;5019788;28;20026;-63
2021/08/27 10:04:50;;;;;;;7.75;2.20;;;23.30;99.90;;;;;;5025115;28;20368;-63
2021/08/27 10:07:27;;;;;;;7.65;2.28;;;23.40;99.50;;;;;;5028627;28;20030;-63
2021/08/27 10:09:53;;;;;;;7.25;2.30;;;23.40;99.80;;;;;;5029174;28;20070;-63
2021/08/27 10:12:19;;;;;;;6.13;2.17;;;23.40;99.90;;;;;;5013905;28;20041;-63
2021/08/27 10:14:45;;;;;;;8.02;2.30;;;23.60;99.70;;;;;;5016620;28;20042;-63
2021/08/27 10:17:14;;;;;;;6.38;2.33;;;23.80;99.30;;;;;;5029676;28;20055;-63
2021/08/27 10:19:40;;;;;;;2.83;2.05;;;23.70;99.30;;;;;;5024171;28;20026;-63
2021/08/27 10:22:05;;;;;;;4.40;2.30;;;23.70;99.50;;;;;;5025548;28;20076;-63
2021/08/27 10:24:31;;;;;;;7.47;2.00;;;23.90;99.20;;;;;;5020922;28;20030;-63
2021/08/27 10:26:59;;;;;;;8.25;2.65;;;23.90;99.10;;;;;;5026969;28;20095;-63
2021/08/27 10:29:25;;;;;;;5.00;2.50;;;23.90;98.70;;;;;;5032027;28;20395;-63
2021/08/27 10:31:51;;;;;;;7.03;2.65;;;24.00;98.80;;;;;;5021712;28;20059;-64
2021/08/27 10:34:37;;;;;;;4.90;2.10;;;24.00;98.80;;;;;;5027277;28;20033;-64
2021/08/27 10:37:02;;;;;;;3.85;1.55;;;24.10;98.60;;;;;;5030819;28;20087;-64
2021/08/27 10:39:39;;;;;;;4.80;2.13;;;23.90;98.70;;;;;;5013703;28;20033;-64
2021/08/27 10:42:07;;;;;;;4.05;1.55;;;23.80;98.30;;;;;;5023591;28;20034;-64
2021/08/27 10:44:50;;;;;;;5.70;1.92;;;23.90;98.50;;;;;;5022643;28;20407;-64
2021/08/27 10:47:17;;;;;;;5.90;2.05;;;24.10;97.70;;;;;;5027405;28;20025;-64
2021/08/27 10:49:46;;;;;;;9.57;1.90;;;24.10;98.20;;;;;;5025655;28;20041;-64
2021/08/27 10:52:35;;;;;;;7.25;2.22;;;24.00;98.00;;;;;;5031359;28;20077;-64
2021/08/27 10:55:04;;;;;;;3.50;2.35;;;24.00;97.70;;;;;;5021636;28;20025;-64
2021/08/27 10:57:42;;;;;;;7.80;2.60;;;24.00;98.40;;;;;;5024431;28;20114;-64
2021/08/27 11:00:08;;;;;;;5.05;1.67;;;24.30;97.70;;;;;;5019357;28;20030;-63
2021/08/27 11:02:54;;;;;;;6.82;2.17;;;24.10;96.90;;;;;;5017619;28;20026;-63
2021/08/27 11:05:32;;;;;;;2.70;1.63;;;24.50;96.70;;;;;;5030666;28;20087;-64
2021/08/27 11:08:13;;;;;;;3.80;1.73;;;24.70;96.30;;;;;;5030925;28;20075;-63
2021/08/27 11:10:41;;;;;;;4.28;1.98;;;25.00;95.30;;;;;;5026332;28;20450;-63
2021/08/27 11:13:11;;;;;;;4.85;2.03;;;25.00;95.10;;;;;;5019891;28;20033;-63
2021/08/27 11:15:38;;;;;;;7.47;2.10;;;25.00;95.20;;;;;;5029353;28;20079;-64
2021/08/27 11:18:15;;;;;;;5.57;1.88;;;25.10;95.10;;;;;;5023009;28;20314;-63
2021/08/27 11:20:41;;;;;;;5.65;2.38;;;25.10;94.00;;;;;;5028732;28;20032;-63
2021/08/27 11:23:07;;;;;;;8.43;2.58;;;25.40;93.70;;;;;;5015681;28;20388;-64
2021/08/27 11:25:33;;;;;;;5.78;2.33;;;25.50;93.90;;;;;;5022006;28;20553;-63
2021/08/27 11:28:18;;;;;;;7.25;2.28;;;25.10;93.90;;;;;;5021507;28;20061;-63
2021/08/27 11:31:07;;;;;;;4.05;2.50;;;24.90;93.60;;;;;;5028762;28;20513;-63
2021/08/27 11:33:43;;;;;;;6.10;2.40;;;24.80;93.70;;;;;;5019464;28;20034;-63
2021/08/27 11:36:09;;;;;;;3.97;2.38;;;25.10;93.70;;;;;;5014414;28;20029;-63
2021/08/27 11:38:35;;;;;;;3.88;2.38;;;25.10;93.80;;;;;;5020764;28;20048;-64
2021/08/27 11:41:01;;;;;;;6.07;1.77;;;25.10;94.10;;;;;;5016104;28;20126;-63
2021/08/27 11:43:43;;;;;;;12.02;2.60;;;25.30;93.10;;;;;;5016982;28;20168;-63
2021/08/27 11:46:22;;;;;;;7.25;2.17;;;25.40;93.00;;;;;;5012755;28;20033;-63
2021/08/27 11:49:23;;;;;;;9.73;1.98;;;25.30;93.20;;;;;;5020297;28;20041;-63
2021/08/27 11:52:12;;;;;;;4.47;1.85;;;25.50;92.70;;;;;;5021906;28;20499;-63
2021/08/27 11:54:38;;;;;;;8.18;1.83;;;25.40;92.30;;;;;;5018600;28;20033;-63
2021/08/27 11:57:13;;;;;;;4.40;1.45;;;25.60;92.20;;;;;;5012958;28;20026;-63
2021/08/27 11:59:40;;;;;;;4.97;1.30;;;26.20;90.50;;;;;;5019862;28;20037;-63
2021/08/27 12:02:19;;;;;;;6.25;1.52;;;26.10;90.60;;;;;;5018069;28;20029;-64
2021/08/27 12:04:53;;;;;;;9.52;1.77;;;26.20;90.20;;;;;;5028002;28;20025;-63
2021/08/27 12:07:18;;;;;;;3.97;1.70;;;27.30;89.30;;;;;;5022432;28;20363;-63
2021/08/27 12:09:44;;;;;;;5.70;1.70;;;;;;;;;;5025458;28;20025;-63
2021/08/27 12:12:31;;;;;;;6.40;1.63;;;27.20;88.00;;;;;;5023248;28;20490;-64
2021/08/27 12:14:57;;;;;;;4.90;1.38;;;27.00;85.60;;;;;;5025354;28;20328;-63
2021/08/27 12:17:28;;;;;;;4.18;1.67;;;28.40;83.80;;;;;;5030968;28;20104;-64
2021/08/27 12:19:56;;;;;;;3.30;1.67;;;29.50;78.80;;;;;;5026893;28;20060;-64
2021/08/27 12:22:26;;;;;;;4.95;1.60;;;30.30;76.20;;;;;;5035057;28;20036;-64
2021/08/27 12:24:53;;;;;;;4.55;2.05;;;;;;;;;;5032374;28;20026;-64
2021/08/27 12:27:20;;;;;;;9.02;2.70;;;31.60;65.50;;;;;;5024693;28;20030;-64
2021/08/27 12:29:46;;;;;;;7.13;2.15;;;32.30;76.10;;;;;;5015544;28;20026;-64
2021/08/27 12:32:17;;;;;;;5.55;2.08;;;31.90;73.10;;;;;;5026989;28;20056;-64
2021/08/27 12:34:47;;;;;;;3.55;1.95;;;31.40;69.40;;;;;;5033971;28;20052;-64
2021/08/27 12:37:15;;;;;;;4.70;1.90;;;31.40;63.50;;;;;;5017735;28;20068;-64
2021/08/27 12:39:40;;;;;;;3.92;1.92;;;31.60;67.20;;;;;;5021130;28;20033;-64
2021/08/27 12:42:15;;;;;;;4.93;2.17;;;32.20;62.40;;;;;;5032508;28;20387;-64
2021/08/27 12:45:01;;;;;;;5.35;2.00;;;;;;;;;;5034248;28;20034;-64
2021/08/27 12:47:35;;;;;;;3.88;2.03;;;33.30;76.00;;;;;;5034433;28;20032;-64
2021/08/27 12:50:05;;;;;;;6.13;2.47;;;36.00;62.70;;;;;;5034015;28;20030;-64
2021/08/27 12:52:31;;;;;;;4.32;2.13;;;;;;;;;;5023165;28;20560;-64
2021/08/27 12:54:57;;;;;;;4.93;2.63;;;36.10;73.30;;;;;;5024094;28;20041;-64